Latest Weather Observations for Whyalla

IDS60801

Issued at 9:35 am CDT Saturday 25 October 2014 (issued every 30 minutes, with the page automatically refreshed every 10 minutes)

About weather observations | Map of weather stations | Latest weather observations for SA | Other Formats
Station Details ID: 018120 Name: WHYALLA AERO Lat: -33.05 Lon: 137.52 Height: 6.5 m
Data from the previous 72 hours. | See also: Recent months at Whyalla
Date/Time
CDT
Temp
°C
App
Temp
°C
Dew
Point
Rel
Hum
%
Delta-T
°C
Wind Press
QNH
hPa
Press
MSL
hPa
Rain
since 9 am
mm
Dir
 
Spd
km/h
Gust
km/h
Spd
kts
Gust
kts
25/09:30am 19.0 17.1 15.1 78 2.3 S 19 28 10 15 1017.7 1017.7 0.0
25/09:00am 18.9 17.3 15.0 78 2.3 S 17 24 9 13 1017.6 1017.6 0.0
25/08:30am 18.5 16.0 14.2 76 2.5 S 20 24 11 13 1017.6 1017.6 0.0
25/08:00am 17.7 17.6 14.0 79 2.1 SSE 7 13 4 7 1017.6 1017.6 0.0
25/07:30am 16.4 16.4 13.7 84 1.5 E 6 7 3 4 1017.4 1017.4 0.0
25/07:00am 14.6 15.4 12.6 88 1.1 CALM 0 0 0 0 1017.1 1017.1 0.0
25/06:30am 14.3 14.8 12.7 90 0.9 WSW 2 6 1 3 1016.4 1016.4 0.0
25/06:00am 14.6 14.3 13.3 92 0.7 WSW 7 9 4 5 1016.1 1016.1 0.0
25/05:30am 14.9 14.6 13.3 90 0.9 WSW 7 11 4 6 1015.6 1015.6 0.0
25/05:00am 15.7 15.9 14.1 90 0.9 W 6 7 3 4 1015.0 1015.0 0.0
25/04:30am 16.0 14.9 14.4 90 0.9 SW 13 15 7 8 1014.8 1014.8 0.0
25/04:00am 16.4 15.0 14.6 89 1.0 SSW 15 19 8 10 1015.1 1015.1 0.0
25/03:30am 16.6 15.3 14.8 89 1.0 SSW 15 22 8 12 1014.9 1014.9 0.0
25/03:00am 16.9 14.9 14.9 88 1.2 SSW 19 24 10 13 1014.7 1014.7 0.0
25/02:30am 17.3 14.8 15.1 87 1.3 SSW 22 30 12 16 1014.7 1014.7 0.0
25/02:00am 17.6 15.0 14.9 84 1.6 SSW 22 30 12 16 1014.5 1014.5 0.0
25/01:30am 17.9 14.4 14.4 80 2.0 SSW 26 35 14 19 1014.9 1014.9 0.0
25/01:00am 18.3 14.7 14.2 77 2.4 SSW 26 33 14 18 1014.7 1014.7 0.0
25/12:30am 18.6 16.0 13.7 73 2.8 SSW 20 24 11 13 1014.7 1014.7 0.0
25/12:00am 19.2 16.5 13.4 69 3.3 SSW 20 30 11 16 1014.7 1014.7 0.0
 
Date/Time
CDT
Temp
°C
App
Temp
°C
Dew
Point
Rel
Hum
%
Delta-T
°C
Wind Press
QNH
hPa
Press
MSL
hPa
Rain
since 9 am
mm
Dir
 
Spd
km/h
Gust
km/h
Spd
kts
Gust
kts
24/11:30pm 19.7 17.0 13.4 67 3.6 SSW 20 24 11 13 1014.8 1014.8 0.0
24/11:00pm 20.1 17.8 13.1 64 4.0 SSW 17 22 9 12 1014.7 1014.7 0.0
24/10:30pm 20.3 17.6 13.0 63 4.1 SSW 19 24 10 13 1015.0 1015.0 0.0
24/10:00pm 20.7 19.4 12.4 59 4.7 S 11 17 6 9 1015.0 1015.0 0.0
24/09:30pm 21.6 16.4 10.1 48 6.2 SSW 28 35 15 19 1014.0 1014.0 0.0
24/09:00pm 22.9 18.3 11.0 47 6.6 SSW 26 39 14 21 1013.3 1013.3 0.0
24/08:30pm 23.8 18.8 9.4 40 7.8 SSW 26 35 14 19 1012.6 1012.6 0.0
24/08:00pm 24.4 18.3 8.4 36 8.5 SSW 30 44 16 24 1012.1 1012.1 0.0
24/07:30pm 24.0 18.2 12.6 49 6.5 SSW 35 46 19 25 1011.6 1011.6 0.0
24/07:00pm 23.9 18.0 12.5 49 6.5 S 35 46 19 25 1011.1 1011.1 0.0
24/06:32pm 26.6 20.7 9.0 33 9.6 S 30 48 16 26 1010.5 1010.5 0.0
24/06:30pm 26.8 21.3 9.2 33 9.7 S 28 39 15 21 1010.5 1010.5 0.0
24/06:00pm 27.6 22.6 8.0 29 10.6 S 24 32 13 17 1010.4 1010.4 0.0
24/05:30pm 29.3 24.4 6.7 24 12.1 S 22 28 12 15 1010.1 1010.1 0.0
24/05:00pm 31.0 26.6 4.7 19 13.7 SSE 17 22 9 12 1010.2 1010.2 0.0
24/04:30pm 31.0 25.3 3.1 17 14.2 SSE 22 28 12 15 1010.1 1010.1 0.0
24/04:00pm 30.6 25.8 5.8 21 13.1 SSE 20 30 11 16 1010.9 1010.9 0.0
24/03:30pm 31.6 27.8 9.2 25 12.6 SE 19 24 10 13 1011.0 1011.0 0.0
24/03:00pm 29.7 27.0 13.5 37 9.7 SE 20 26 11 14 1011.3 1011.3 0.0
24/02:30pm 32.0 27.9 10.1 26 12.5 E 22 28 12 15 1011.5 1011.5 0.0
24/02:00pm 31.7 27.9 11.0 28 12.0 E 22 30 12 16 1012.0 1012.0 0.0
24/01:30pm 30.3 26.9 11.3 31 11.0 E 20 22 11 12 1012.2 1012.2 0.0
24/01:00pm 29.0 26.6 12.8 36 9.5 E 17 20 9 11 1012.7 1012.7 0.0
24/12:30pm 28.3 26.8 14.2 42 8.5 E 15 20 8 11 1013.0 1013.0 0.0
24/12:00pm 28.9 27.2 12.3 36 9.7 E 13 17 7 9 1013.3 1013.3 0.0
24/11:30am 25.7 24.0 13.5 46 7.2 SE 15 19 8 10 1013.7 1013.7 0.0
24/11:00am 24.8 22.7 15.1 54 5.8 SSE 20 32 11 17 1013.9 1013.9 0.0
24/10:50am 26.1 23.4 13.6 46 7.4 SSE 20 28 11 15 1013.7 1013.7 0.0
24/10:30am 31.7 28.5 6.7 21 13.5 NNW 13 24 7 13 1013.6 1013.6 0.0
24/10:00am 29.8 27.4 9.9 29 11.2 N 13 19 7 10 1013.7 1013.7 0.0
24/09:30am 26.6 25.6 11.1 38 8.8 NNW 7 13 4 7 1013.6 1013.6 0.0
24/09:00am 24.6 22.8 12.2 46 7.1 N 13 17 7 9 1013.7 1013.7 0.0
24/08:30am 21.1 20.1 13.3 61 4.5 NNW 11 17 6 9 1013.8 1013.8 0.0
24/08:00am 17.4 16.4 12.3 72 2.8 NNW 9 13 5 7 1014.0 1014.0 0.0
24/07:30am 16.1 16.4 12.1 77 2.2 N 2 11 1 6 1013.7 1013.7 0.0
24/07:00am 15.0 14.2 11.2 78 2.0 ENE 6 11 3 6 1013.5 1013.5 0.0
24/06:30am 14.8 13.5 11.2 79 1.9 N 9 11 5 6 1013.4 1013.4 0.0
24/06:00am 15.0 13.7 11.4 79 1.9 N 9 11 5 6 1012.9 1012.9 0.0
24/05:30am 14.8 13.5 11.2 79 1.9 N 9 13 5 7 1012.8 1012.8 0.0
24/05:00am 14.6 13.2 10.8 78 2.0 N 9 11 5 6 1012.8 1012.8 0.0
24/04:30am 15.2 14.2 11.0 76 2.2 NW 7 11 4 6 1012.7 1012.7 0.0
24/04:00am 15.8 15.2 11.6 76 2.3 NW 6 9 3 5 1012.5 1012.5 0.0
24/03:30am 15.7 14.1 11.5 76 2.3 WNW 11 15 6 8 1013.0 1013.0 0.0
24/03:00am 15.5 13.9 11.7 78 2.1 WNW 11 13 6 7 1012.9 1012.9 0.0
24/02:30am 15.3 15.8 11.7 79 1.9 CALM 0 0 0 0 1012.9 1012.9 0.0
24/02:00am 14.9 14.7 11.7 81 1.7 WSW 4 9 2 5 1013.5 1013.5 0.0
24/01:30am 14.9 14.4 11.9 82 1.6 W 6 9 3 5 1014.0 1014.0 0.0
24/01:00am 14.7 13.2 11.8 83 1.6 W 11 13 6 7 1014.9 1014.9 0.0
24/12:30am 15.2 15.9 12.1 82 1.7 CALM 0 0 0 0 1014.6 1014.6 0.0
24/12:00am 16.1 16.6 12.7 80 1.9 SW 2 6 1 3 1015.2 1015.2 0.0
 
Date/Time
CDT
Temp
°C
App
Temp
°C
Dew
Point
Rel
Hum
%
Delta-T
°C
Wind Press
QNH
hPa
Press
MSL
hPa
Rain
since 9 am
mm
Dir
 
Spd
km/h
Gust
km/h
Spd
kts
Gust
kts
23/11:30pm 16.6 16.4 13.1 80 2.0 SW 6 7 3 4 1015.7 1015.7 0.0
23/11:00pm 17.1 17.0 13.2 78 2.2 S 6 13 3 7 1015.9 1015.9 0.0
23/10:30pm 17.5 16.2 13.6 78 2.2 SSW 13 17 7 9 1015.9 1015.9 0.0
23/10:00pm 17.9 16.6 13.6 76 2.4 SSW 13 17 7 9 1015.7 1015.7 0.0
23/09:30pm 18.3 16.9 14.6 79 2.1 SSW 15 20 8 11 1015.7 1015.7 0.0
23/09:00pm 18.5 16.3 14.8 79 2.1 SSW 20 24 11 13 1015.6 1015.6 0.0
23/08:30pm 18.5 16.4 14.6 78 2.3 S 19 28 10 15 1015.3 1015.3 0.0
23/08:00pm 18.9 15.7 14.2 74 2.7 S 24 30 13 16 1014.9 1014.9 0.0
23/07:30pm 19.2 15.2 14.0 72 3.0 S 28 33 15 18 1014.5 1014.5 0.0
23/07:00pm 19.1 15.7 14.8 76 2.5 S 26 33 14 18 1014.3 1014.3 0.0
23/06:30pm 19.1 16.1 14.8 76 2.5 S 24 32 13 17 1014.1 1014.1 0.0
23/06:00pm 19.7 16.7 14.9 74 2.8 S 24 30 13 16 1013.8 1013.8 0.0
23/05:30pm 20.8 18.7 14.7 68 3.6 SSE 19 24 10 13 1013.6 1013.6 0.0
23/05:00pm 21.5 19.3 14.4 64 4.2 SSE 19 24 10 13 1013.5 1013.5 0.0
23/04:30pm 20.5 18.1 13.9 66 3.8 SSE 19 24 10 13 1013.6 1013.6 0.0
23/04:00pm 21.9 19.5 13.8 60 4.7 SSE 19 24 10 13 1013.8 1013.8 0.0
23/03:30pm 21.8 19.7 13.7 60 4.7 SSE 17 22 9 12 1014.1 1014.1 0.0
23/03:00pm 22.0 20.4 12.8 56 5.2 SSE 13 19 7 10 1014.3 1014.3 0.0
23/02:30pm 22.0 20.5 13.1 57 5.1 SSE 13 17 7 9 1014.7 1014.7 0.0
23/02:00pm 22.1 20.1 12.6 55 5.4 S 15 20 8 11 1015.2 1015.2 0.0
23/01:30pm 20.8 19.3 13.0 61 4.4 S 13 20 7 11 1015.6 1015.6 0.0
23/01:00pm 19.7 17.3 12.7 64 3.9 S 17 24 9 13 1015.6 1015.6 0.0
23/12:30pm 19.3 17.0 13.0 67 3.6 SSE 17 22 9 12 1016.0 1016.0 0.0
23/12:00pm 19.0 16.8 13.2 69 3.3 S 17 24 9 13 1016.5 1016.5 0.0
23/11:30am 18.7 16.3 12.5 67 3.5 SSE 17 24 9 13 1016.8 1016.8 0.0
23/11:04am 17.9 15.4 12.4 70 3.1 SSE 17 22 9 12 1017.1 1017.1 0.0
23/11:00am 18.3 16.2 12.5 69 3.2 SSE 15 20 8 11 1017.1 1017.1 0.0
23/10:30am 17.1 15.3 12.2 73 2.7 S 13 19 7 10 1017.5 1017.5 0.0
23/10:00am 17.1 15.1 12.6 75 2.5 SSE 15 19 8 10 1017.4 1017.4 0.0
23/09:30am 16.7 14.7 12.7 77 2.2 SSE 15 20 8 11 1017.8 1017.8 0.0
23/09:00am 16.6 14.3 13.1 80 1.9 S 17 22 9 12 1017.8 1017.8 0.0
23/08:30am 16.4 14.5 12.9 80 1.9 S 15 20 8 11 1018.1 1018.1 0.0
23/08:00am 15.9 13.5 12.8 82 1.7 S 17 24 9 13 1018.1 1018.1 0.0
23/07:30am 15.7 13.3 12.8 83 1.6 S 17 22 9 12 1018.2 1018.2 0.0
23/07:00am 15.5 13.1 12.6 83 1.6 S 17 22 9 12 1018.1 1018.1 0.0
23/06:30am 15.5 13.1 12.8 84 1.5 SSE 17 22 9 12 1017.7 1017.7 0.0
23/06:00am 15.3 12.8 12.4 83 1.6 SSE 17 22 9 12 1017.6 1017.6 0.0
23/05:30am 15.4 13.0 12.7 84 1.5 S 17 24 9 13 1017.6 1017.6 0.0
23/05:00am 15.5 12.7 12.6 83 1.6 S 19 24 10 13 1017.7 1017.7 0.0
23/04:30am 15.6 12.8 12.7 83 1.6 S 19 26 10 14 1017.8 1017.8 0.0
23/04:00am 15.8 13.5 12.9 83 1.6 S 17 24 9 13 1017.7 1017.7 0.0
23/03:30am 15.9 13.3 13.2 84 1.5 S 19 26 10 14 1017.6 1017.6 0.0
23/03:00am 15.8 13.5 13.1 84 1.5 S 17 22 9 12 1017.6 1017.6 0.0
23/02:30am 16.1 13.6 13.4 84 1.5 S 19 28 10 15 1017.9 1017.9 0.0
23/02:00am 16.3 13.6 13.6 84 1.5 S 20 30 11 16 1018.0 1018.0 0.0
23/01:30am 16.6 14.0 13.7 83 1.6 S 20 28 11 15 1018.4 1018.4 0.0
23/01:00am 16.7 13.3 13.6 82 1.7 S 24 32 13 17 1018.9 1018.9 0.0
23/12:45am 16.9 13.5 13.8 82 1.8 S 24 32 13 17 1019.1 1019.1 0.0
23/12:32am 17.0 14.0 13.7 81 1.9 S 22 30 12 16 1019.2 1019.2 0.0
23/12:30am 17.0 14.0 13.7 81 1.9 S 22 32 12 17 1019.2 1019.2 0.0
23/12:00am 17.5 14.4 14.6 83 1.7 S 24 32 13 17 1019.3 1019.3 0.0
 
Date/Time
CDT
Temp
°C
App
Temp
°C
Dew
Point
Rel
Hum
%
Delta-T
°C
Wind Press
QNH
hPa
Press
MSL
hPa
Rain
since 9 am
mm
Dir
 
Spd
km/h
Gust
km/h
Spd
kts
Gust
kts
22/11:55pm 17.5 14.5 14.8 84 1.6 S 24 32 13 17 1019.3 1019.3 0.0
22/11:42pm 17.3 14.7 14.8 85 1.4 S 22 32 12 17 1019.3 1019.3 0.0
22/11:30pm 17.3 14.0 14.9 86 1.4 S 26 35 14 19 1019.2 1019.2 0.0
22/11:02pm 17.0 12.9 15.0 88 1.2 S 30 39 16 21 1019.3 1019.3 0.0
22/11:00pm 17.0 12.9 15.0 88 1.2 S 30 39 16 21 1019.3 1019.3 0.0
22/10:30pm 17.0 13.5 14.6 86 1.4 SSW 26 41 14 22 1019.3 1019.3 0.0
22/10:00pm 16.9 13.2 14.0 83 1.6 SSW 26 35 14 19 1019.3 1019.3 0.0
22/09:30pm 17.1 12.9 13.6 80 2.0 SSW 28 37 15 20 1019.0 1019.0 0.0
22/09:00pm 17.5 13.6 13.4 77 2.3 SSW 26 35 14 19 1018.6 1018.6 0.0
22/08:30pm 18.3 13.7 13.4 73 2.8 SSW 30 37 16 20 1018.2 1018.2 0.0
22/08:00pm 19.3 14.3 13.5 69 3.3 SSW 32 43 17 23 1017.9 1017.9 0.0
22/07:30pm 20.6 16.3 13.1 62 4.3 SSW 28 37 15 20 1017.6 1017.6 0.0
22/07:00pm 22.0 17.8 13.4 58 5.0 SSW 28 37 15 20 1017.2 1017.2 0.0
22/06:30pm 22.9 18.4 13.9 57 5.2 S 30 37 16 20 1017.1 1017.1 0.0
22/06:00pm 23.6 19.5 13.8 54 5.7 S 28 37 15 20 1017.0 1017.0 0.0
22/05:30pm 23.5 19.0 13.7 54 5.7 S 30 43 16 23 1017.0 1017.0 0.0
22/05:00pm 23.6 19.3 14.3 56 5.5 S 30 39 16 21 1016.8 1016.8 0.0
22/04:30pm 25.0 20.2 13.9 50 6.5 S 32 41 17 22 1016.8 1016.8 0.0
22/04:00pm 24.4 19.1 14.2 53 6.0 S 35 43 19 23 1016.8 1016.8 0.0
22/03:30pm 24.5 18.8 14.3 53 6.0 S 37 46 20 25 1016.7 1016.7 0.0
22/03:00pm 23.7 18.2 14.7 57 5.3 S 37 48 20 26 1016.8 1016.8 0.0
22/02:30pm 22.9 17.3 14.5 59 4.9 S 37 46 20 25 1017.0 1017.0 0.0
22/02:00pm 22.9 17.7 14.5 59 5.0 S 35 46 19 25 1017.2 1017.2 0.0
22/01:30pm 23.6 18.5 13.8 54 5.7 S 33 46 18 25 1017.5 1017.5 0.0
22/01:00pm 24.2 19.5 14.3 54 5.8 S 32 43 17 23 1017.5 1017.5 0.0
22/12:30pm 23.2 18.9 14.5 58 5.1 S 30 39 16 21 1017.7 1017.7 0.0
22/12:00pm 23.3 19.5 14.6 58 5.1 S 28 37 15 20 1017.9 1017.9 0.0
22/11:30am 23.6 20.2 13.8 54 5.7 S 24 35 13 19 1017.9 1017.9 0.0
22/11:00am 24.4 22.2 14.8 55 5.7 SSE 20 28 11 15 1018.1 1018.1 0.0
22/10:30am 24.1 21.1 13.6 52 6.1 S 22 32 12 17 1018.0 1018.0 0.0
22/10:00am 23.2 19.8 12.5 51 6.1 SSW 22 32 12 17 1018.1 1018.1 0.0

Other Formats:

Comma delimited format used in spreadsheet applications
http://www.bom.gov.au/fwo/IDS60801/IDS60801.95664.axf

JavaScript Object Notation format (JSON) in row-major order
http://www.bom.gov.au/fwo/IDS60801/IDS60801.95664.json